createdAt,value
2023-01-25T00:01:47.366Z,102781.29
2023-01-25T00:16:52.061Z,102775.48
2023-01-25T00:32:02.167Z,102777.14
2023-01-25T01:02:25.432Z,102775.97
2023-01-25T01:17:29.513Z,102771.55
2023-01-25T01:47:51.845Z,102763.77
2023-01-25T02:03:12.173Z,102747.17
2023-01-25T02:18:19.095Z,102735.87
2023-01-25T02:33:26.488Z,102719.71
2023-01-25T02:48:44.702Z,102710.73
2023-01-25T03:03:49.174Z,102695.20
2023-01-25T03:18:55.729Z,102675.95
2023-01-25T03:34:00.176Z,102653.67
2023-01-25T03:49:04.417Z,102632.32
2023-01-25T04:19:40.263Z,102598.09
2023-01-25T04:34:58.215Z,102585.85
2023-01-25T04:50:02.239Z,102572.46
2023-01-25T05:05:07.708Z,102564.31
2023-01-25T05:20:13.029Z,102545.88
2023-01-25T05:35:18.086Z,102547.90
2023-01-25T05:50:23.866Z,102537.89
2023-01-25T06:05:28.003Z,102540.19
2023-01-25T06:20:32.135Z,102537.55
2023-01-25T06:35:36.892Z,102534.81
2023-01-25T06:50:40.860Z,102531.42
2023-01-25T07:21:13.479Z,102521.08
2023-01-25T07:36:19.172Z,102509.41
2023-01-25T07:51:24.642Z,102491.00
2023-01-25T08:06:36.098Z,102474.83
2023-01-25T08:36:58.859Z,102447.73
2023-01-25T08:52:02.951Z,102432.08
2023-01-25T09:07:20.672Z,102417.42
2023-01-25T09:22:24.979Z,102411.73
2023-01-25T10:09:08.915Z,102378.59
2023-01-25T10:24:41.791Z,102370.38
2023-01-25T10:55:30.084Z,102326.57
2023-01-25T11:10:37.501Z,102307.09
2023-01-25T11:25:41.876Z,102280.65
2023-01-25T11:41:06.461Z,102260.30
2023-01-25T11:56:19.194Z,102236.31
2023-01-25T12:12:00.365Z,102209.70
2023-01-25T12:27:56.194Z,102171.11
2023-01-25T12:59:00.544Z,102119.68
2023-01-25T13:14:18.468Z,102095.80
2023-01-25T13:29:39.307Z,102080.90
2023-01-25T13:45:13.876Z,102059.70
2023-01-25T14:00:19.421Z,102033.79
2023-01-25T14:15:31.675Z,102018.32
2023-01-25T14:46:42.294Z,101972.64
2023-01-25T15:02:28.708Z,101961.08
2023-01-25T15:17:48.799Z,101937.31
2023-01-25T15:33:07.028Z,101915.15
2023-01-25T15:48:14.812Z,101909.94
2023-01-25T16:03:20.694Z,101895.73
2023-01-25T16:49:24.600Z,101846.88
2023-01-25T17:04:30.295Z,101837.91
2023-01-25T17:19:51.999Z,101827.50
2023-01-25T17:34:59.240Z,101802.77
2023-01-25T18:05:34.818Z,101774.27
2023-01-25T18:20:39.043Z,101762.88
2023-01-25T18:35:44.382Z,101743.42
2023-01-25T18:50:48.678Z,101719.63
2023-01-25T19:05:52.595Z,101717.25
2023-01-25T19:20:57.255Z,101688.75
2023-01-25T19:36:19.300Z,101669.66
2023-01-25T19:51:41.760Z,101663.29
2023-01-25T20:06:46.936Z,101648.88
2023-01-25T20:22:04.931Z,101635.29
2023-01-25T20:37:08.856Z,101618.42
2023-01-25T20:52:14.004Z,101606.30
2023-01-25T21:07:31.869Z,101586.73
2023-01-25T21:22:36.168Z,101567.73
2023-01-25T21:37:40.115Z,101545.11
2023-01-25T21:52:44.972Z,101536.38
2023-01-25T22:08:02.649Z,101532.55
2023-01-25T22:23:07.008Z,101528.02
2023-01-25T22:38:11.220Z,101520.91
2023-01-25T22:53:15.373Z,101507.75
2023-01-25T23:08:19.806Z,101495.98
2023-01-25T23:23:37.642Z,101475.02
2023-01-25T23:38:56.963Z,101457.61
2023-01-25T23:54:15.040Z,101443.86
